sensor_id;sensor_type;location;lat;lon;timestamp;temperature;humidity
6118;DHT22;3089;48.202;11.510;2024-03-08T00:00:15;2.10;99.90
6118;DHT22;3089;48.202;11.510;2024-03-08T00:02:46;1.70;99.90
6118;DHT22;3089;48.202;11.510;2024-03-08T00:05:17;1.90;99.90
6118;DHT22;3089;48.202;11.510;2024-03-08T00:07:46;1.80;99.90
6118;DHT22;3089;48.202;11.510;2024-03-08T00:10:14;2.40;99.90
6118;DHT22;3089;48.202;11.510;2024-03-08T00:12:45;2.80;99.90
6118;DHT22;3089;48.202;11.510;2024-03-08T00:15:16;1.40;99.90
6118;DHT22;3089;48.202;11.510;2024-03-08T00:17:46;1.40;99.90
6118;DHT22;3089;48.202;11.510;2024-03-08T00:20:15;1.50;99.90
6118;DHT22;3089;48.202;11.510;2024-03-08T00:22:45;1.40;99.90
6118;DHT22;3089;48.202;11.510;2024-03-08T00:25:14;2.40;99.90
6118;DHT22;3089;48.202;11.510;2024-03-08T00:27:42;1.70;99.90
6118;DHT22;3089;48.202;11.510;2024-03-08T00:30:12;1.60;99.90
6118;DHT22;3089;48.202;11.510;2024-03-08T00:32:41;2.20;99.90
6118;DHT22;3089;48.202;11.510;2024-03-08T00:35:09;1.60;99.90
6118;DHT22;3089;48.202;11.510;2024-03-08T00:37:39;1.60;99.90
6118;DHT22;3089;48.202;11.510;2024-03-08T00:40:08;1.10;99.90
6118;DHT22;3089;48.202;11.510;2024-03-08T00:42:36;1.30;99.90
6118;DHT22;3089;48.202;11.510;2024-03-08T00:45:07;1.60;99.90
6118;DHT22;3089;48.202;11.510;2024-03-08T00:47:38;1.30;99.90
6118;DHT22;3089;48.202;11.510;2024-03-08T00:50:07;1.10;99.90
6118;DHT22;3089;48.202;11.510;2024-03-08T00:52:36;1.40;99.90
6118;DHT22;3089;48.202;11.510;2024-03-08T00:55:05;1.50;99.90
6118;DHT22;3089;48.202;11.510;2024-03-08T00:57:34;1.50;99.90
6118;DHT22;3089;48.202;11.510;2024-03-08T01:00:03;1.00;99.90
6118;DHT22;3089;48.202;11.510;2024-03-08T01:02:33;1.50;99.90
6118;DHT22;3089;48.202;11.510;2024-03-08T01:05:04;1.10;99.90
6118;DHT22;3089;48.202;11.510;2024-03-08T01:07:34;1.20;99.90
6118;DHT22;3089;48.202;11.510;2024-03-08T01:10:03;1.20;99.90
6118;DHT22;3089;48.202;11.510;2024-03-08T01:12:31;1.20;99.90
6118;DHT22;3089;48.202;11.510;2024-03-08T01:14:59;1.40;99.90
6118;DHT22;3089;48.202;11.510;2024-03-08T01:17:27;0.90;99.90
6118;DHT22;3089;48.202;11.510;2024-03-08T01:19:55;1.80;99.90
6118;DHT22;3089;48.202;11.510;2024-03-08T01:22:25;1.60;99.90
6118;DHT22;3089;48.202;11.510;2024-03-08T01:24:54;1.40;99.90
6118;DHT22;3089;48.202;11.510;2024-03-08T01:27:23;1.30;99.90
6118;DHT22;3089;48.202;11.510;2024-03-08T01:29:51;2.40;99.90
6118;DHT22;3089;48.202;11.510;2024-03-08T01:32:19;2.30;99.90
6118;DHT22;3089;48.202;11.510;2024-03-08T01:34:49;1.90;99.90
6118;DHT22;3089;48.202;11.510;2024-03-08T01:37:18;1.80;99.90
6118;DHT22;3089;48.202;11.510;2024-03-08T01:39:48;2.60;99.90
6118;DHT22;3089;48.202;11.510;2024-03-08T01:42:16;2.00;99.90
6118;DHT22;3089;48.202;11.510;2024-03-08T01:44:44;1.50;99.90
6118;DHT22;3089;48.202;11.510;2024-03-08T01:47:12;1.60;99.90
6118;DHT22;3089;48.202;11.510;2024-03-08T01:49:41;1.00;99.90
6118;DHT22;3089;48.202;11.510;2024-03-08T01:52:09;1.20;99.90
6118;DHT22;3089;48.202;11.510;2024-03-08T01:54:38;1.10;99.90
6118;DHT22;3089;48.202;11.510;2024-03-08T01:57:09;0.80;99.90
6118;DHT22;3089;48.202;11.510;2024-03-08T01:59:38;1.00;99.90
6118;DHT22;3089;48.202;11.510;2024-03-08T02:02:08;0.60;99.90
6118;DHT22;3089;48.202;11.510;2024-03-08T02:04:40;0.80;99.90
6118;DHT22;3089;48.202;11.510;2024-03-08T02:07:08;0.70;99.90
6118;DHT22;3089;48.202;11.510;2024-03-08T02:09:37;1.60;99.90
6118;DHT22;3089;48.202;11.510;2024-03-08T02:12:08;1.10;99.90
6118;DHT22;3089;48.202;11.510;2024-03-08T02:14:36;1.70;99.90
6118;DHT22;3089;48.202;11.510;2024-03-08T02:17:04;2.40;99.90
6118;DHT22;3089;48.202;11.510;2024-03-08T02:19:32;2.60;99.90
6118;DHT22;3089;48.202;11.510;2024-03-08T02:22:04;2.20;99.90
6118;DHT22;3089;48.202;11.510;2024-03-08T02:24:33;2.20;99.90
6118;DHT22;3089;48.202;11.510;2024-03-08T02:27:01;1.50;99.90
6118;DHT22;3089;48.202;11.510;2024-03-08T02:29:30;1.20;99.90
6118;DHT22;3089;48.202;11.510;2024-03-08T02:31:59;1.10;99.90
6118;DHT22;3089;48.202;11.510;2024-03-08T02:34:27;0.80;99.90
6118;DHT22;3089;48.202;11.510;2024-03-08T02:36:56;0.90;99.90
6118;DHT22;3089;48.202;11.510;2024-03-08T02:39:25;1.90;99.90
6118;DHT22;3089;48.202;11.510;2024-03-08T02:41:52;2.30;99.90
6118;DHT22;3089;48.202;11.510;2024-03-08T02:44:21;2.60;99.90
6118;DHT22;3089;48.202;11.510;2024-03-08T02:46:49;1.10;99.90
6118;DHT22;3089;48.202;11.510;2024-03-08T02:49:17;1.60;99.90
6118;DHT22;3089;48.202;11.510;2024-03-08T02:51:45;1.90;99.90
6118;DHT22;3089;48.202;11.510;2024-03-08T02:54:13;1.80;99.90
6118;DHT22;3089;48.202;11.510;2024-03-08T02:56:45;1.40;99.90
6118;DHT22;3089;48.202;11.510;2024-03-08T02:59:14;2.00;99.90
6118;DHT22;3089;48.202;11.510;2024-03-08T03:01:44;2.20;99.90
6118;DHT22;3089;48.202;11.510;2024-03-08T03:04:12;1.60;99.90
6118;DHT22;3089;48.202;11.510;2024-03-08T03:06:40;1.90;99.90
6118;DHT22;3089;48.202;11.510;2024-03-08T03:09:08;1.20;99.90
6118;DHT22;3089;48.202;11.510;2024-03-08T03:11:37;2.10;99.90
6118;DHT22;3089;48.202;11.510;2024-03-08T03:14:06;2.40;99.90
6118;DHT22;3089;48.202;11.510;2024-03-08T03:16:35;2.00;99.90
6118;DHT22;3089;48.202;11.510;2024-03-08T03:19:03;2.20;99.90
6118;DHT22;3089;48.202;11.510;2024-03-08T03:21:32;2.60;99.90
6118;DHT22;3089;48.202;11.510;2024-03-08T03:24:02;2.40;99.90
6118;DHT22;3089;48.202;11.510;2024-03-08T03:26:31;2.10;99.90
6118;DHT22;3089;48.202;11.510;2024-03-08T03:28:59;1.80;99.90
6118;DHT22;3089;48.202;11.510;2024-03-08T03:31:31;1.90;99.90
6118;DHT22;3089;48.202;11.510;2024-03-08T03:33:59;1.80;99.90
6118;DHT22;3089;48.202;11.510;2024-03-08T03:36:29;1.60;99.90
6118;DHT22;3089;48.202;11.510;2024-03-08T03:38:57;1.70;99.90
6118;DHT22;3089;48.202;11.510;2024-03-08T03:41:37;0.80;99.90
6118;DHT22;3089;48.202;11.510;2024-03-08T03:44:05;1.30;99.90
6118;DHT22;3089;48.202;11.510;2024-03-08T03:46:35;0.80;99.90
6118;DHT22;3089;48.202;11.510;2024-03-08T03:49:03;1.20;99.90
6118;DHT22;3089;48.202;11.510;2024-03-08T03:51:31;1.20;99.90
6118;DHT22;3089;48.202;11.510;2024-03-08T03:53:59;1.60;99.90
6118;DHT22;3089;48.202;11.510;2024-03-08T03:56:30;1.90;99.90
6118;DHT22;3089;48.202;11.510;2024-03-08T03:58:58;1.70;99.90
6118;DHT22;3089;48.202;11.510;2024-03-08T04:01:26;1.60;99.90
6118;DHT22;3089;48.202;11.510;2024-03-08T04:03:57;1.90;99.90
6118;DHT22;3089;48.202;11.510;2024-03-08T04:06:26;1.00;99.90
6118;DHT22;3089;48.202;11.510;2024-03-08T04:08:54;1.80;99.90
6118;DHT22;3089;48.202;11.510;2024-03-08T04:11:22;1.90;99.90
6118;DHT22;3089;48.202;11.510;2024-03-08T04:13:50;1.90;99.90
6118;DHT22;3089;48.202;11.510;2024-03-08T04:16:19;2.00;99.90
6118;DHT22;3089;48.202;11.510;2024-03-08T04:18:47;1.30;99.90
6118;DHT22;3089;48.202;11.510;2024-03-08T04:21:17;1.20;99.90
6118;DHT22;3089;48.202;11.510;2024-03-08T04:23:46;1.90;99.90
6118;DHT22;3089;48.202;11.510;2024-03-08T04:26:14;2.00;99.90
6118;DHT22;3089;48.202;11.510;2024-03-08T04:28:45;0.70;99.90
6118;DHT22;3089;48.202;11.510;2024-03-08T04:31:13;0.70;99.90
6118;DHT22;3089;48.202;11.510;2024-03-08T04:33:42;1.00;99.90
6118;DHT22;3089;48.202;11.510;2024-03-08T04:36:11;0.50;99.90
6118;DHT22;3089;48.202;11.510;2024-03-08T04:38:41;0.40;99.90
6118;DHT22;3089;48.202;11.510;2024-03-08T04:41:10;0.00;99.90
6118;DHT22;3089;48.202;11.510;2024-03-08T04:43:38;0.30;99.90
6118;DHT22;3089;48.202;11.510;2024-03-08T04:46:06;0.10;99.90
6118;DHT22;3089;48.202;11.510;2024-03-08T04:48:34;0.60;99.90
6118;DHT22;3089;48.202;11.510;2024-03-08T04:51:04;0.80;99.90
6118;DHT22;3089;48.202;11.510;2024-03-08T04:53:32;0.50;99.90
6118;DHT22;3089;48.202;11.510;2024-03-08T04:56:02;1.10;99.90
6118;DHT22;3089;48.202;11.510;2024-03-08T04:58:32;0.70;99.90
6118;DHT22;3089;48.202;11.510;2024-03-08T05:01:01;0.40;99.90
6118;DHT22;3089;48.202;11.510;2024-03-08T05:03:29;0.20;99.90
6118;DHT22;3089;48.202;11.510;2024-03-08T05:05:57;0.20;99.90
6118;DHT22;3089;48.202;11.510;2024-03-08T05:08:26;0.10;99.90
6118;DHT22;3089;48.202;11.510;2024-03-08T05:10:54;0.60;99.90
6118;DHT22;3089;48.202;11.510;2024-03-08T05:13:24;0.40;99.90
6118;DHT22;3089;48.202;11.510;2024-03-08T05:15:53;0.30;99.90
6118;DHT22;3089;48.202;11.510;2024-03-08T05:18:25;0.90;99.90
6118;DHT22;3089;48.202;11.510;2024-03-08T05:20:55;0.40;99.90
6118;DHT22;3089;48.202;11.510;2024-03-08T05:23:23;0.60;99.90
6118;DHT22;3089;48.202;11.510;2024-03-08T05:25:51;0.80;99.90
6118;DHT22;3089;48.202;11.510;2024-03-08T05:28:19;0.60;99.90
6118;DHT22;3089;48.202;11.510;2024-03-08T05:30:49;0.70;99.90
6118;DHT22;3089;48.202;11.510;2024-03-08T05:33:17;0.70;99.90
6118;DHT22;3089;48.202;11.510;2024-03-08T05:35:46;0.50;99.90
6118;DHT22;3089;48.202;11.510;2024-03-08T05:38:14;0.10;99.90
6118;DHT22;3089;48.202;11.510;2024-03-08T05:40:42;0.50;99.90
6118;DHT22;3089;48.202;11.510;2024-03-08T05:43:11;0.20;99.90
6118;DHT22;3089;48.202;11.510;2024-03-08T05:45:39;0.70;99.90
6118;DHT22;3089;48.202;11.510;2024-03-08T05:48:09;0.70;99.90
6118;DHT22;3089;48.202;11.510;2024-03-08T05:50:38;0.80;99.90
6118;DHT22;3089;48.202;11.510;2024-03-08T05:53:06;0.50;99.90
6118;DHT22;3089;48.202;11.510;2024-03-08T05:55:34;0.30;99.90
6118;DHT22;3089;48.202;11.510;2024-03-08T05:58:03;0.70;99.90
6118;DHT22;3089;48.202;11.510;2024-03-08T06:00:31;0.20;99.90
6118;DHT22;3089;48.202;11.510;2024-03-08T06:02:59;0.30;99.90
6118;DHT22;3089;48.202;11.510;2024-03-08T06:05:28;1.00;99.90
6118;DHT22;3089;48.202;11.510;2024-03-08T06:07:57;1.00;99.90
6118;DHT22;3089;48.202;11.510;2024-03-08T06:10:25;1.00;99.90
6118;DHT22;3089;48.202;11.510;2024-03-08T06:12:53;0.60;99.90
6118;DHT22;3089;48.202;11.510;2024-03-08T06:15:21;0.40;99.90
6118;DHT22;3089;48.202;11.510;2024-03-08T06:17:50;0.70;99.90
6118;DHT22;3089;48.202;11.510;2024-03-08T06:20:19;1.50;99.90
6118;DHT22;3089;48.202;11.510;2024-03-08T06:22:54;0.80;99.90
6118;DHT22;3089;48.202;11.510;2024-03-08T06:25:22;0.70;99.90
6118;DHT22;3089;48.202;11.510;2024-03-08T06:27:50;1.20;99.90
6118;DHT22;3089;48.202;11.510;2024-03-08T06:30:19;1.20;99.90
6118;DHT22;3089;48.202;11.510;2024-03-08T06:32:48;1.10;99.90
6118;DHT22;3089;48.202;11.510;2024-03-08T06:35:17;1.00;99.90
6118;DHT22;3089;48.202;11.510;2024-03-08T06:37:47;1.00;99.90
6118;DHT22;3089;48.202;11.510;2024-03-08T06:40:16;1.20;99.90
6118;DHT22;3089;48.202;11.510;2024-03-08T06:42:44;1.20;99.90
6118;DHT22;3089;48.202;11.510;2024-03-08T06:45:13;1.20;99.90
6118;DHT22;3089;48.202;11.510;2024-03-08T06:47:46;0.90;99.90
6118;DHT22;3089;48.202;11.510;2024-03-08T06:50:14;1.20;99.90
6118;DHT22;3089;48.202;11.510;2024-03-08T06:52:43;1.10;99.90
6118;DHT22;3089;48.202;11.510;2024-03-08T06:55:13;1.30;99.90
6118;DHT22;3089;48.202;11.510;2024-03-08T06:57:42;1.10;99.90
6118;DHT22;3089;48.202;11.510;2024-03-08T07:00:11;1.40;99.90
6118;DHT22;3089;48.202;11.510;2024-03-08T07:02:40;1.00;99.90
6118;DHT22;3089;48.202;11.510;2024-03-08T07:05:09;1.30;99.90
6118;DHT22;3089;48.202;11.510;2024-03-08T07:07:38;1.80;99.90
6118;DHT22;3089;48.202;11.510;2024-03-08T07:10:08;1.70;99.90
6118;DHT22;3089;48.202;11.510;2024-03-08T07:12:38;1.70;99.90
6118;DHT22;3089;48.202;11.510;2024-03-08T07:15:08;1.00;99.90
6118;DHT22;3089;48.202;11.510;2024-03-08T07:17:40;0.90;99.90
6118;DHT22;3089;48.202;11.510;2024-03-08T07:20:10;1.10;99.90
6118;DHT22;3089;48.202;11.510;2024-03-08T07:22:40;1.10;99.90
6118;DHT22;3089;48.202;11.510;2024-03-08T07:25:13;1.40;99.90
6118;DHT22;3089;48.202;11.510;2024-03-08T07:27:52;1.40;99.90
6118;DHT22;3089;48.202;11.510;2024-03-08T07:30:23;1.40;99.90
6118;DHT22;3089;48.202;11.510;2024-03-08T07:33:10;1.40;99.90
6118;DHT22;3089;48.202;11.510;2024-03-08T07:35:40;1.20;99.90
6118;DHT22;3089;48.202;11.510;2024-03-08T07:38:11;1.60;99.90
6118;DHT22;3089;48.202;11.510;2024-03-08T07:40:40;1.20;99.90
6118;DHT22;3089;48.202;11.510;2024-03-08T07:43:11;1.10;99.90
6118;DHT22;3089;48.202;11.510;2024-03-08T07:45:41;1.00;99.90
6118;DHT22;3089;48.202;11.510;2024-03-08T07:48:09;1.40;99.90
6118;DHT22;3089;48.202;11.510;2024-03-08T07:50:38;1.50;99.90
6118;DHT22;3089;48.202;11.510;2024-03-08T07:53:07;1.70;99.90
6118;DHT22;3089;48.202;11.510;2024-03-08T07:55:36;1.90;99.90
6118;DHT22;3089;48.202;11.510;2024-03-08T07:58:06;1.70;99.90
6118;DHT22;3089;48.202;11.510;2024-03-08T08:00:36;1.90;99.90
6118;DHT22;3089;48.202;11.510;2024-03-08T08:03:05;1.80;99.90
6118;DHT22;3089;48.202;11.510;2024-03-08T08:05:35;1.50;99.90
6118;DHT22;3089;48.202;11.510;2024-03-08T08:08:05;1.70;99.90
6118;DHT22;3089;48.202;11.510;2024-03-08T08:10:37;2.40;99.90
6118;DHT22;3089;48.202;11.510;2024-03-08T08:13:05;2.50;99.90
6118;DHT22;3089;48.202;11.510;2024-03-08T08:15:32;3.50;99.90
6118;DHT22;3089;48.202;11.510;2024-03-08T08:18:01;4.20;99.90
6118;DHT22;3089;48.202;11.510;2024-03-08T08:20:33;3.60;99.90
6118;DHT22;3089;48.202;11.510;2024-03-08T08:23:01;3.10;99.90
6118;DHT22;3089;48.202;11.510;2024-03-08T08:25:30;3.30;99.90
6118;DHT22;3089;48.202;11.510;2024-03-08T08:28:01;2.50;99.90
6118;DHT22;3089;48.202;11.510;2024-03-08T08:30:30;2.70;99.90
6118;DHT22;3089;48.202;11.510;2024-03-08T08:33:00;2.40;99.90
6118;DHT22;3089;48.202;11.510;2024-03-08T08:35:29;2.40;99.90
6118;DHT22;3089;48.202;11.510;2024-03-08T08:37:58;2.90;99.90
6118;DHT22;3089;48.202;11.510;2024-03-08T08:40:27;3.00;99.90
6118;DHT22;3089;48.202;11.510;2024-03-08T08:42:57;2.60;99.90
6118;DHT22;3089;48.202;11.510;2024-03-08T08:45:25;2.90;99.90
6118;DHT22;3089;48.202;11.510;2024-03-08T08:47:54;3.60;99.90
6118;DHT22;3089;48.202;11.510;2024-03-08T08:50:22;3.60;99.90
6118;DHT22;3089;48.202;11.510;2024-03-08T08:52:51;4.10;99.90
6118;DHT22;3089;48.202;11.510;2024-03-08T08:55:22;4.10;99.90
6118;DHT22;3089;48.202;11.510;2024-03-08T08:57:53;5.10;99.90
6118;DHT22;3089;48.202;11.510;2024-03-08T09:00:22;4.60;99.90
6118;DHT22;3089;48.202;11.510;2024-03-08T09:02:54;5.70;99.90
6118;DHT22;3089;48.202;11.510;2024-03-08T09:05:25;4.40;99.90
6118;DHT22;3089;48.202;11.510;2024-03-08T09:07:53;4.30;99.90
6118;DHT22;3089;48.202;11.510;2024-03-08T09:10:23;5.20;99.90
6118;DHT22;3089;48.202;11.510;2024-03-08T09:12:57;4.90;99.90
6118;DHT22;3089;48.202;11.510;2024-03-08T09:15:26;4.80;99.90
6118;DHT22;3089;48.202;11.510;2024-03-08T09:17:56;4.80;99.90
6118;DHT22;3089;48.202;11.510;2024-03-08T09:20:25;4.40;99.90
6118;DHT22;3089;48.202;11.510;2024-03-08T09:22:53;4.50;99.90
6118;DHT22;3089;48.202;11.510;2024-03-08T09:25:23;4.90;99.90
6118;DHT22;3089;48.202;11.510;2024-03-08T09:27:52;5.00;99.90
6118;DHT22;3089;48.202;11.510;2024-03-08T09:30:21;4.90;99.90
6118;DHT22;3089;48.202;11.510;2024-03-08T09:32:49;4.40;99.90
6118;DHT22;3089;48.202;11.510;2024-03-08T09:35:18;4.70;99.90
6118;DHT22;3089;48.202;11.510;2024-03-08T09:37:47;5.00;99.90
6118;DHT22;3089;48.202;11.510;2024-03-08T09:40:18;5.30;99.90
6118;DHT22;3089;48.202;11.510;2024-03-08T09:42:49;4.90;99.90
6118;DHT22;3089;48.202;11.510;2024-03-08T09:45:19;5.00;99.90
6118;DHT22;3089;48.202;11.510;2024-03-08T09:47:48;5.30;99.90
6118;DHT22;3089;48.202;11.510;2024-03-08T09:50:17;5.30;99.90
6118;DHT22;3089;48.202;11.510;2024-03-08T09:52:48;5.90;99.90
6118;DHT22;3089;48.202;11.510;2024-03-08T09:55:17;4.90;99.90
6118;DHT22;3089;48.202;11.510;2024-03-08T09:57:51;5.10;99.90
6118;DHT22;3089;48.202;11.510;2024-03-08T10:00:37;5.50;99.90
6118;DHT22;3089;48.202;11.510;2024-03-08T10:03:05;5.50;99.90
6118;DHT22;3089;48.202;11.510;2024-03-08T10:05:33;5.70;99.90
6118;DHT22;3089;48.202;11.510;2024-03-08T10:08:02;5.80;99.90
6118;DHT22;3089;48.202;11.510;2024-03-08T10:10:33;6.00;99.90
6118;DHT22;3089;48.202;11.510;2024-03-08T10:13:02;5.90;99.90
6118;DHT22;3089;48.202;11.510;2024-03-08T10:15:33;6.30;99.90
6118;DHT22;3089;48.202;11.510;2024-03-08T10:18:01;6.00;99.90
6118;DHT22;3089;48.202;11.510;2024-03-08T10:20:30;6.20;99.90
6118;DHT22;3089;48.202;11.510;2024-03-08T10:23:00;6.60;99.90
6118;DHT22;3089;48.202;11.510;2024-03-08T10:25:37;7.00;99.90
6118;DHT22;3089;48.202;11.510;2024-03-08T10:28:07;6.60;99.90
6118;DHT22;3089;48.202;11.510;2024-03-08T10:30:36;6.50;99.90
6118;DHT22;3089;48.202;11.510;2024-03-08T10:33:04;7.00;99.90
6118;DHT22;3089;48.202;11.510;2024-03-08T10:35:33;6.90;99.90
6118;DHT22;3089;48.202;11.510;2024-03-08T10:38:05;6.80;99.90
6118;DHT22;3089;48.202;11.510;2024-03-08T10:40:38;6.90;99.90
6118;DHT22;3089;48.202;11.510;2024-03-08T10:43:15;6.70;99.90
6118;DHT22;3089;48.202;11.510;2024-03-08T10:45:47;6.60;99.90
6118;DHT22;3089;48.202;11.510;2024-03-08T10:48:28;6.80;99.90
6118;DHT22;3089;48.202;11.510;2024-03-08T10:51:03;6.40;99.90
6118;DHT22;3089;48.202;11.510;2024-03-08T10:53:34;6.30;99.90
6118;DHT22;3089;48.202;11.510;2024-03-08T10:56:04;6.60;99.90
6118;DHT22;3089;48.202;11.510;2024-03-08T10:58:36;6.40;99.90
6118;DHT22;3089;48.202;11.510;2024-03-08T11:01:05;6.40;99.90
6118;DHT22;3089;48.202;11.510;2024-03-08T11:03:47;6.60;99.90
6118;DHT22;3089;48.202;11.510;2024-03-08T11:06:29;6.50;99.90
6118;DHT22;3089;48.202;11.510;2024-03-08T11:08:59;6.70;99.90
6118;DHT22;3089;48.202;11.510;2024-03-08T11:11:28;6.90;99.90
6118;DHT22;3089;48.202;11.510;2024-03-08T11:14:02;6.90;99.90
6118;DHT22;3089;48.202;11.510;2024-03-08T11:16:39;6.80;99.90
6118;DHT22;3089;48.202;11.510;2024-03-08T11:19:26;7.10;99.90
6118;DHT22;3089;48.202;11.510;2024-03-08T11:21:59;7.10;99.90
6118;DHT22;3089;48.202;11.510;2024-03-08T11:24:27;7.30;99.90
6118;DHT22;3089;48.202;11.510;2024-03-08T11:26:57;7.50;99.90
6118;DHT22;3089;48.202;11.510;2024-03-08T11:29:38;7.30;99.90
6118;DHT22;3089;48.202;11.510;2024-03-08T11:32:08;7.30;99.90
6118;DHT22;3089;48.202;11.510;2024-03-08T11:34:37;7.30;99.90
6118;DHT22;3089;48.202;11.510;2024-03-08T11:37:07;7.20;99.90
6118;DHT22;3089;48.202;11.510;2024-03-08T11:39:39;7.40;99.90
6118;DHT22;3089;48.202;11.510;2024-03-08T11:42:08;8.00;99.90
6118;DHT22;3089;48.202;11.510;2024-03-08T11:44:39;8.00;99.90
6118;DHT22;3089;48.202;11.510;2024-03-08T11:47:11;7.60;99.90
6118;DHT22;3089;48.202;11.510;2024-03-08T11:49:39;7.70;99.90
6118;DHT22;3089;48.202;11.510;2024-03-08T11:52:11;7.80;99.90
6118;DHT22;3089;48.202;11.510;2024-03-08T11:54:41;7.50;99.90
6118;DHT22;3089;48.202;11.510;2024-03-08T11:57:10;7.60;99.90
6118;DHT22;3089;48.202;11.510;2024-03-08T11:59:40;7.70;99.90
6118;DHT22;3089;48.202;11.510;2024-03-08T12:02:09;7.60;99.90
6118;DHT22;3089;48.202;11.510;2024-03-08T12:04:38;7.80;99.90
6118;DHT22;3089;48.202;11.510;2024-03-08T12:07:10;7.80;99.90
6118;DHT22;3089;48.202;11.510;2024-03-08T12:09:40;7.50;99.90
6118;DHT22;3089;48.202;11.510;2024-03-08T12:12:13;7.90;99.90
6118;DHT22;3089;48.202;11.510;2024-03-08T12:14:44;7.90;99.90
6118;DHT22;3089;48.202;11.510;2024-03-08T12:17:12;7.90;99.90
6118;DHT22;3089;48.202;11.510;2024-03-08T12:19:46;7.60;99.90
6118;DHT22;3089;48.202;11.510;2024-03-08T12:22:15;7.90;99.90
6118;DHT22;3089;48.202;11.510;2024-03-08T12:24:43;8.00;99.90
6118;DHT22;3089;48.202;11.510;2024-03-08T12:27:18;8.10;99.90
6118;DHT22;3089;48.202;11.510;2024-03-08T12:29:48;8.20;99.90
6118;DHT22;3089;48.202;11.510;2024-03-08T12:32:17;8.30;99.90
6118;DHT22;3089;48.202;11.510;2024-03-08T12:34:52;8.50;99.90
6118;DHT22;3089;48.202;11.510;2024-03-08T12:37:21;8.40;99.90
6118;DHT22;3089;48.202;11.510;2024-03-08T12:39:50;8.30;99.90
6118;DHT22;3089;48.202;11.510;2024-03-08T12:42:19;8.20;99.90
6118;DHT22;3089;48.202;11.510;2024-03-08T12:44:49;7.90;99.90
6118;DHT22;3089;48.202;11.510;2024-03-08T12:47:18;8.20;99.90
6118;DHT22;3089;48.202;11.510;2024-03-08T12:49:47;8.40;99.90
6118;DHT22;3089;48.202;11.510;2024-03-08T12:52:16;8.20;99.90
6118;DHT22;3089;48.202;11.510;2024-03-08T12:54:45;8.30;99.90
6118;DHT22;3089;48.202;11.510;2024-03-08T12:57:14;8.40;99.90
6118;DHT22;3089;48.202;11.510;2024-03-08T12:59:43;8.30;99.90
6118;DHT22;3089;48.202;11.510;2024-03-08T13:02:13;8.60;99.90
6118;DHT22;3089;48.202;11.510;2024-03-08T13:04:43;8.30;99.90
6118;DHT22;3089;48.202;11.510;2024-03-08T13:07:12;8.70;99.90
6118;DHT22;3089;48.202;11.510;2024-03-08T13:09:43;8.50;99.90
6118;DHT22;3089;48.202;11.510;2024-03-08T13:12:13;8.50;99.90
6118;DHT22;3089;48.202;11.510;2024-03-08T13:14:42;8.50;99.90
6118;DHT22;3089;48.202;11.510;2024-03-08T13:19:49;8.50;99.90
6118;DHT22;3089;48.202;11.510;2024-03-08T13:22:18;8.50;99.90
6118;DHT22;3089;48.202;11.510;2024-03-08T13:24:49;8.70;99.90
6118;DHT22;3089;48.202;11.510;2024-03-08T13:27:20;8.60;99.90
6118;DHT22;3089;48.202;11.510;2024-03-08T13:29:49;8.70;99.90
6118;DHT22;3089;48.202;11.510;2024-03-08T13:32:17;8.60;99.90
6118;DHT22;3089;48.202;11.510;2024-03-08T13:34:48;8.60;99.90
6118;DHT22;3089;48.202;11.510;2024-03-08T13:37:18;9.00;99.90
6118;DHT22;3089;48.202;11.510;2024-03-08T13:39:46;9.10;99.90
6118;DHT22;3089;48.202;11.510;2024-03-08T13:42:15;9.30;99.90
6118;DHT22;3089;48.202;11.510;2024-03-08T13:44:44;9.30;99.90
6118;DHT22;3089;48.202;11.510;2024-03-08T13:47:13;8.90;99.90
6118;DHT22;3089;48.202;11.510;2024-03-08T13:49:42;9.20;99.90
6118;DHT22;3089;48.202;11.510;2024-03-08T13:52:12;9.00;99.90
6118;DHT22;3089;48.202;11.510;2024-03-08T13:54:43;9.10;99.90
6118;DHT22;3089;48.202;11.510;2024-03-08T13:57:11;9.00;99.90
6118;DHT22;3089;48.202;11.510;2024-03-08T13:59:40;9.00;99.90
6118;DHT22;3089;48.202;11.510;2024-03-08T14:02:08;9.70;99.90
6118;DHT22;3089;48.202;11.510;2024-03-08T14:04:41;9.50;99.90
6118;DHT22;3089;48.202;11.510;2024-03-08T14:07:12;9.20;99.90
6118;DHT22;3089;48.202;11.510;2024-03-08T14:09:40;9.00;99.90
6118;DHT22;3089;48.202;11.510;2024-03-08T14:12:10;9.10;99.90
6118;DHT22;3089;48.202;11.510;2024-03-08T14:14:38;9.10;99.90
6118;DHT22;3089;48.202;11.510;2024-03-08T14:17:07;8.80;99.90
6118;DHT22;3089;48.202;11.510;2024-03-08T14:19:36;8.80;99.90
6118;DHT22;3089;48.202;11.510;2024-03-08T14:22:06;9.20;99.90
6118;DHT22;3089;48.202;11.510;2024-03-08T14:24:39;9.40;99.90
6118;DHT22;3089;48.202;11.510;2024-03-08T14:27:07;9.30;99.90
6118;DHT22;3089;48.202;11.510;2024-03-08T14:29:37;8.90;99.90
6118;DHT22;3089;48.202;11.510;2024-03-08T14:32:06;9.20;99.90
6118;DHT22;3089;48.202;11.510;2024-03-08T14:34:35;9.70;99.90
6118;DHT22;3089;48.202;11.510;2024-03-08T14:37:03;9.10;99.90
6118;DHT22;3089;48.202;11.510;2024-03-08T14:39:35;8.70;99.90
6118;DHT22;3089;48.202;11.510;2024-03-08T14:42:05;8.80;99.90
6118;DHT22;3089;48.202;11.510;2024-03-08T14:44:35;9.00;99.90
6118;DHT22;3089;48.202;11.510;2024-03-08T14:47:06;9.00;99.90
6118;DHT22;3089;48.202;11.510;2024-03-08T14:49:35;8.80;99.90
6118;DHT22;3089;48.202;11.510;2024-03-08T14:52:05;9.50;99.90
6118;DHT22;3089;48.202;11.510;2024-03-08T14:54:53;9.90;99.90
6118;DHT22;3089;48.202;11.510;2024-03-08T14:57:24;9.30;99.90
6118;DHT22;3089;48.202;11.510;2024-03-08T14:59:52;9.20;99.90
6118;DHT22;3089;48.202;11.510;2024-03-08T15:02:21;9.10;99.90
6118;DHT22;3089;48.202;11.510;2024-03-08T15:04:49;8.60;99.90
6118;DHT22;3089;48.202;11.510;2024-03-08T15:07:24;9.30;99.90
6118;DHT22;3089;48.202;11.510;2024-03-08T15:09:53;9.10;99.90
6118;DHT22;3089;48.202;11.510;2024-03-08T15:12:25;9.90;99.90
6118;DHT22;3089;48.202;11.510;2024-03-08T15:14:56;9.10;99.90
6118;DHT22;3089;48.202;11.510;2024-03-08T15:17:24;9.40;99.90
6118;DHT22;3089;48.202;11.510;2024-03-08T15:19:52;8.90;99.90
6118;DHT22;3089;48.202;11.510;2024-03-08T15:22:21;9.10;99.90
6118;DHT22;3089;48.202;11.510;2024-03-08T15:24:50;8.70;99.90
6118;DHT22;3089;48.202;11.510;2024-03-08T15:27:19;8.60;99.90
6118;DHT22;3089;48.202;11.510;2024-03-08T15:29:49;9.10;99.90
6118;DHT22;3089;48.202;11.510;2024-03-08T15:32:19;9.00;99.90
6118;DHT22;3089;48.202;11.510;2024-03-08T15:34:49;9.50;99.90
6118;DHT22;3089;48.202;11.510;2024-03-08T15:37:21;9.30;99.90
6118;DHT22;3089;48.202;11.510;2024-03-08T15:39:50;8.90;99.90
6118;DHT22;3089;48.202;11.510;2024-03-08T15:42:18;8.60;99.90
6118;DHT22;3089;48.202;11.510;2024-03-08T15:44:51;8.70;99.90
6118;DHT22;3089;48.202;11.510;2024-03-08T15:47:21;8.60;99.90
6118;DHT22;3089;48.202;11.510;2024-03-08T15:49:52;8.70;99.90
6118;DHT22;3089;48.202;11.510;2024-03-08T15:52:20;8.70;99.90
6118;DHT22;3089;48.202;11.510;2024-03-08T15:54:49;8.70;99.90
6118;DHT22;3089;48.202;11.510;2024-03-08T15:57:18;8.40;99.90
6118;DHT22;3089;48.202;11.510;2024-03-08T15:59:48;8.60;99.90
6118;DHT22;3089;48.202;11.510;2024-03-08T16:02:18;8.40;99.90
6118;DHT22;3089;48.202;11.510;2024-03-08T16:04:46;8.80;99.90
6118;DHT22;3089;48.202;11.510;2024-03-08T16:07:15;8.40;99.90
6118;DHT22;3089;48.202;11.510;2024-03-08T16:09:43;8.30;99.90
6118;DHT22;3089;48.202;11.510;2024-03-08T16:12:11;8.60;99.90
6118;DHT22;3089;48.202;11.510;2024-03-08T16:14:40;8.10;99.90
6118;DHT22;3089;48.202;11.510;2024-03-08T16:17:08;8.60;99.90
6118;DHT22;3089;48.202;11.510;2024-03-08T16:19:39;8.60;99.90